sensor_id;sensor_type;location;lat;lon;timestamp;P1;durP1;ratioP1;P2;durP2;ratioP2
65463;SDS011;52063;45.110;9.870;2024-01-30T00:01:00;15.87;;;12.67;;
65463;SDS011;52063;45.110;9.870;2024-01-30T00:03:25;15.53;;;12.20;;
65463;SDS011;52063;45.110;9.870;2024-01-30T00:05:51;16.98;;;12.73;;
65463;SDS011;52063;45.110;9.870;2024-01-30T00:08:16;15.73;;;11.63;;
65463;SDS011;52063;45.110;9.870;2024-01-30T00:10:42;15.80;;;12.20;;
65463;SDS011;52063;45.110;9.870;2024-01-30T00:13:07;17.42;;;12.35;;
65463;SDS011;52063;45.110;9.870;2024-01-30T00:15:33;17.47;;;12.90;;
65463;SDS011;52063;45.110;9.870;2024-01-30T00:17:58;16.70;;;12.60;;
65463;SDS011;52063;45.110;9.870;2024-01-30T00:20:23;18.20;;;12.90;;
65463;SDS011;52063;45.110;9.870;2024-01-30T00:22:49;16.27;;;12.40;;
65463;SDS011;52063;45.110;9.870;2024-01-30T00:25:14;15.27;;;12.00;;
65463;SDS011;52063;45.110;9.870;2024-01-30T00:27:40;15.97;;;13.00;;
65463;SDS011;52063;45.110;9.870;2024-01-30T00:30:06;17.80;;;12.60;;
65463;SDS011;52063;45.110;9.870;2024-01-30T00:32:31;15.55;;;12.75;;
65463;SDS011;52063;45.110;9.870;2024-01-30T00:34:57;16.30;;;12.57;;
65463;SDS011;52063;45.110;9.870;2024-01-30T00:37:23;15.77;;;12.83;;
65463;SDS011;52063;45.110;9.870;2024-01-30T00:39:48;16.50;;;12.35;;
65463;SDS011;52063;45.110;9.870;2024-01-30T00:42:14;15.00;;;12.07;;
65463;SDS011;52063;45.110;9.870;2024-01-30T00:44:39;16.10;;;12.60;;
65463;SDS011;52063;45.110;9.870;2024-01-30T00:47:05;17.70;;;12.67;;
65463;SDS011;52063;45.110;9.870;2024-01-30T00:49:31;13.85;;;11.30;;
65463;SDS011;52063;45.110;9.870;2024-01-30T00:51:56;15.97;;;12.20;;
65463;SDS011;52063;45.110;9.870;2024-01-30T00:54:22;16.15;;;12.02;;
65463;SDS011;52063;45.110;9.870;2024-01-30T00:56:47;14.80;;;12.23;;
65463;SDS011;52063;45.110;9.870;2024-01-30T00:59:13;15.43;;;12.27;;
65463;SDS011;52063;45.110;9.870;2024-01-30T01:01:38;15.60;;;12.37;;
65463;SDS011;52063;45.110;9.870;2024-01-30T01:04:04;16.17;;;11.60;;
65463;SDS011;52063;45.110;9.870;2024-01-30T01:06:29;17.87;;;12.37;;
65463;SDS011;52063;45.110;9.870;2024-01-30T01:08:55;14.60;;;12.23;;
65463;SDS011;52063;45.110;9.870;2024-01-30T01:11:20;15.73;;;12.93;;
65463;SDS011;52063;45.110;9.870;2024-01-30T01:13:46;15.90;;;12.13;;
65463;SDS011;52063;45.110;9.870;2024-01-30T01:16:12;15.63;;;12.02;;
65463;SDS011;52063;45.110;9.870;2024-01-30T01:18:38;16.50;;;12.80;;
65463;SDS011;52063;45.110;9.870;2024-01-30T01:21:04;14.82;;;11.98;;
65463;SDS011;52063;45.110;9.870;2024-01-30T01:23:30;14.13;;;11.50;;
65463;SDS011;52063;45.110;9.870;2024-01-30T01:25:55;14.90;;;11.90;;
65463;SDS011;52063;45.110;9.870;2024-01-30T01:28:21;16.57;;;12.10;;
65463;SDS011;52063;45.110;9.870;2024-01-30T01:30:46;17.50;;;12.17;;
65463;SDS011;52063;45.110;9.870;2024-01-30T01:33:11;14.77;;;11.93;;
65463;SDS011;52063;45.110;9.870;2024-01-30T01:35:39;13.93;;;11.37;;
65463;SDS011;52063;45.110;9.870;2024-01-30T01:38:05;14.88;;;12.00;;
65463;SDS011;52063;45.110;9.870;2024-01-30T01:40:30;14.30;;;11.83;;
65463;SDS011;52063;45.110;9.870;2024-01-30T01:42:56;15.00;;;11.98;;
65463;SDS011;52063;45.110;9.870;2024-01-30T01:45:21;15.33;;;12.17;;
65463;SDS011;52063;45.110;9.870;2024-01-30T01:47:48;16.40;;;11.90;;
65463;SDS011;52063;45.110;9.870;2024-01-30T01:50:16;14.40;;;11.93;;
65463;SDS011;52063;45.110;9.870;2024-01-30T01:52:45;14.85;;;12.25;;
65463;SDS011;52063;45.110;9.870;2024-01-30T01:55:12;14.50;;;11.88;;
65463;SDS011;52063;45.110;9.870;2024-01-30T01:57:38;15.18;;;11.80;;
65463;SDS011;52063;45.110;9.870;2024-01-30T02:00:04;16.90;;;12.07;;
65463;SDS011;52063;45.110;9.870;2024-01-30T02:02:35;13.63;;;11.73;;
65463;SDS011;52063;45.110;9.870;2024-01-30T02:05:00;14.38;;;11.50;;
65463;SDS011;52063;45.110;9.870;2024-01-30T02:07:26;15.30;;;11.60;;
65463;SDS011;52063;45.110;9.870;2024-01-30T02:09:53;14.60;;;12.02;;
65463;SDS011;52063;45.110;9.870;2024-01-30T02:12:18;14.13;;;11.23;;
65463;SDS011;52063;45.110;9.870;2024-01-30T02:14:47;14.57;;;12.43;;
65463;SDS011;52063;45.110;9.870;2024-01-30T02:17:13;14.18;;;11.43;;
65463;SDS011;52063;45.110;9.870;2024-01-30T02:19:39;14.37;;;11.60;;
65463;SDS011;52063;45.110;9.870;2024-01-30T02:22:04;14.38;;;11.60;;
65463;SDS011;52063;45.110;9.870;2024-01-30T02:24:30;14.20;;;11.70;;
65463;SDS011;52063;45.110;9.870;2024-01-30T02:26:56;13.90;;;11.20;;
65463;SDS011;52063;45.110;9.870;2024-01-30T02:29:22;13.50;;;12.05;;
65463;SDS011;52063;45.110;9.870;2024-01-30T02:31:48;16.27;;;12.17;;
65463;SDS011;52063;45.110;9.870;2024-01-30T02:34:13;14.30;;;11.98;;
65463;SDS011;52063;45.110;9.870;2024-01-30T02:36:42;14.95;;;11.90;;
65463;SDS011;52063;45.110;9.870;2024-01-30T02:39:09;13.70;;;11.23;;
65463;SDS011;52063;45.110;9.870;2024-01-30T02:41:35;13.25;;;11.25;;
65463;SDS011;52063;45.110;9.870;2024-01-30T02:44:00;12.48;;;10.88;;
65463;SDS011;52063;45.110;9.870;2024-01-30T02:46:26;13.20;;;11.38;;
65463;SDS011;52063;45.110;9.870;2024-01-30T02:48:52;13.20;;;10.93;;
65463;SDS011;52063;45.110;9.870;2024-01-30T02:51:17;14.53;;;11.47;;
65463;SDS011;52063;45.110;9.870;2024-01-30T02:53:43;14.35;;;11.18;;
65463;SDS011;52063;45.110;9.870;2024-01-30T02:56:08;15.00;;;11.30;;
65463;SDS011;52063;45.110;9.870;2024-01-30T02:58:37;13.48;;;11.57;;
65463;SDS011;52063;45.110;9.870;2024-01-30T03:01:03;12.77;;;10.90;;
65463;SDS011;52063;45.110;9.870;2024-01-30T03:03:28;12.73;;;11.27;;
65463;SDS011;52063;45.110;9.870;2024-01-30T03:05:54;14.00;;;11.03;;
65463;SDS011;52063;45.110;9.870;2024-01-30T03:08:19;12.77;;;11.07;;
65463;SDS011;52063;45.110;9.870;2024-01-30T03:10:46;13.55;;;11.13;;
65463;SDS011;52063;45.110;9.870;2024-01-30T03:13:11;13.60;;;10.83;;
65463;SDS011;52063;45.110;9.870;2024-01-30T03:15:37;14.10;;;10.98;;
65463;SDS011;52063;45.110;9.870;2024-01-30T03:18:02;13.50;;;10.67;;
65463;SDS011;52063;45.110;9.870;2024-01-30T03:20:30;12.68;;;10.55;;
65463;SDS011;52063;45.110;9.870;2024-01-30T03:22:56;13.40;;;11.07;;
65463;SDS011;52063;45.110;9.870;2024-01-30T03:25:22;13.15;;;11.32;;
65463;SDS011;52063;45.110;9.870;2024-01-30T03:27:48;12.50;;;10.80;;
65463;SDS011;52063;45.110;9.870;2024-01-30T03:30:14;13.45;;;11.05;;
65463;SDS011;52063;45.110;9.870;2024-01-30T03:32:39;14.33;;;11.17;;
65463;SDS011;52063;45.110;9.870;2024-01-30T03:35:05;12.73;;;11.20;;
65463;SDS011;52063;45.110;9.870;2024-01-30T03:37:30;13.80;;;11.20;;
65463;SDS011;52063;45.110;9.870;2024-01-30T03:39:56;13.43;;;11.05;;
65463;SDS011;52063;45.110;9.870;2024-01-30T03:42:22;13.10;;;11.30;;
65463;SDS011;52063;45.110;9.870;2024-01-30T03:44:47;14.17;;;10.40;;
65463;SDS011;52063;45.110;9.870;2024-01-30T03:47:13;11.57;;;9.60;;
65463;SDS011;52063;45.110;9.870;2024-01-30T03:49:39;11.83;;;10.13;;
65463;SDS011;52063;45.110;9.870;2024-01-30T03:52:05;13.97;;;10.50;;
65463;SDS011;52063;45.110;9.870;2024-01-30T03:54:30;12.77;;;10.27;;
65463;SDS011;52063;45.110;9.870;2024-01-30T03:56:55;11.87;;;9.53;;
65463;SDS011;52063;45.110;9.870;2024-01-30T03:59:21;12.70;;;10.07;;
65463;SDS011;52063;45.110;9.870;2024-01-30T04:01:52;11.00;;;9.68;;
65463;SDS011;52063;45.110;9.870;2024-01-30T04:04:17;11.77;;;10.13;;
65463;SDS011;52063;45.110;9.870;2024-01-30T04:06:43;11.70;;;9.57;;
65463;SDS011;52063;45.110;9.870;2024-01-30T04:09:09;11.85;;;9.50;;
65463;SDS011;52063;45.110;9.870;2024-01-30T04:11:35;11.70;;;10.20;;
65463;SDS011;52063;45.110;9.870;2024-01-30T04:14:00;11.25;;;10.02;;
65463;SDS011;52063;45.110;9.870;2024-01-30T04:16:26;11.20;;;10.00;;
65463;SDS011;52063;45.110;9.870;2024-01-30T04:18:51;11.05;;;9.75;;
65463;SDS011;52063;45.110;9.870;2024-01-30T04:21:17;12.07;;;10.50;;
65463;SDS011;52063;45.110;9.870;2024-01-30T04:23:43;11.57;;;10.25;;
65463;SDS011;52063;45.110;9.870;2024-01-30T04:26:08;12.80;;;10.07;;
65463;SDS011;52063;45.110;9.870;2024-01-30T04:28:34;10.67;;;9.30;;
65463;SDS011;52063;45.110;9.870;2024-01-30T04:30:59;10.77;;;9.68;;
65463;SDS011;52063;45.110;9.870;2024-01-30T04:33:25;11.83;;;9.67;;
65463;SDS011;52063;45.110;9.870;2024-01-30T04:35:50;12.80;;;10.10;;
65463;SDS011;52063;45.110;9.870;2024-01-30T04:38:17;11.82;;;9.88;;
65463;SDS011;52063;45.110;9.870;2024-01-30T04:40:42;12.50;;;9.97;;
65463;SDS011;52063;45.110;9.870;2024-01-30T04:43:08;12.10;;;10.30;;
65463;SDS011;52063;45.110;9.870;2024-01-30T04:45:33;11.23;;;9.87;;
65463;SDS011;52063;45.110;9.870;2024-01-30T04:47:59;11.37;;;9.63;;
65463;SDS011;52063;45.110;9.870;2024-01-30T04:50:24;11.30;;;9.77;;
65463;SDS011;52063;45.110;9.870;2024-01-30T04:52:51;11.10;;;9.55;;
65463;SDS011;52063;45.110;9.870;2024-01-30T04:55:17;9.97;;;8.93;;
65463;SDS011;52063;45.110;9.870;2024-01-30T04:57:43;11.50;;;9.67;;
65463;SDS011;52063;45.110;9.870;2024-01-30T05:00:08;10.80;;;9.40;;
65463;SDS011;52063;45.110;9.870;2024-01-30T05:02:34;9.88;;;8.88;;
65463;SDS011;52063;45.110;9.870;2024-01-30T05:05:00;10.63;;;9.33;;
65463;SDS011;52063;45.110;9.870;2024-01-30T05:07:26;11.30;;;9.80;;
65463;SDS011;52063;45.110;9.870;2024-01-30T05:09:51;10.97;;;9.57;;
65463;SDS011;52063;45.110;9.870;2024-01-30T05:12:17;10.23;;;9.13;;
65463;SDS011;52063;45.110;9.870;2024-01-30T05:14:42;10.77;;;9.18;;
65463;SDS011;52063;45.110;9.870;2024-01-30T05:17:08;11.67;;;9.10;;
65463;SDS011;52063;45.110;9.870;2024-01-30T05:19:35;10.50;;;9.00;;
65463;SDS011;52063;45.110;9.870;2024-01-30T05:22:01;9.63;;;8.63;;
65463;SDS011;52063;45.110;9.870;2024-01-30T05:24:26;9.90;;;8.83;;
65463;SDS011;52063;45.110;9.870;2024-01-30T05:26:52;10.73;;;8.97;;
65463;SDS011;52063;45.110;9.870;2024-01-30T05:29:17;10.10;;;8.33;;
65463;SDS011;52063;45.110;9.870;2024-01-30T05:31:43;13.60;;;9.27;;
65463;SDS011;52063;45.110;9.870;2024-01-30T05:34:08;10.40;;;8.30;;
65463;SDS011;52063;45.110;9.870;2024-01-30T05:36:34;10.02;;;8.45;;
65463;SDS011;52063;45.110;9.870;2024-01-30T05:39:00;11.93;;;8.73;;
65463;SDS011;52063;45.110;9.870;2024-01-30T05:41:25;9.63;;;8.60;;
65463;SDS011;52063;45.110;9.870;2024-01-30T05:43:53;9.57;;;8.57;;
65463;SDS011;52063;45.110;9.870;2024-01-30T05:46:19;9.95;;;8.93;;
65463;SDS011;52063;45.110;9.870;2024-01-30T05:48:44;9.67;;;8.67;;
65463;SDS011;52063;45.110;9.870;2024-01-30T05:51:10;10.80;;;8.50;;
65463;SDS011;52063;45.110;9.870;2024-01-30T05:53:35;10.65;;;8.70;;
65463;SDS011;52063;45.110;9.870;2024-01-30T05:56:01;10.47;;;8.40;;
65463;SDS011;52063;45.110;9.870;2024-01-30T05:58:27;10.15;;;8.93;;
65463;SDS011;52063;45.110;9.870;2024-01-30T06:00:53;9.57;;;7.97;;
65463;SDS011;52063;45.110;9.870;2024-01-30T06:03:18;10.18;;;8.30;;
65463;SDS011;52063;45.110;9.870;2024-01-30T06:05:44;9.67;;;8.33;;
65463;SDS011;52063;45.110;9.870;2024-01-30T06:08:09;10.67;;;8.50;;
65463;SDS011;52063;45.110;9.870;2024-01-30T06:10:35;9.40;;;7.93;;
65463;SDS011;52063;45.110;9.870;2024-01-30T06:13:00;9.13;;;7.60;;
65463;SDS011;52063;45.110;9.870;2024-01-30T06:15:25;9.40;;;7.30;;
65463;SDS011;52063;45.110;9.870;2024-01-30T06:17:51;9.17;;;7.83;;
65463;SDS011;52063;45.110;9.870;2024-01-30T06:20:16;8.85;;;7.95;;
65463;SDS011;52063;45.110;9.870;2024-01-30T06:22:43;8.53;;;7.70;;
65463;SDS011;52063;45.110;9.870;2024-01-30T06:25:08;9.00;;;8.07;;
65463;SDS011;52063;45.110;9.870;2024-01-30T06:27:34;8.90;;;7.97;;
65463;SDS011;52063;45.110;9.870;2024-01-30T06:29:59;9.33;;;8.00;;
65463;SDS011;52063;45.110;9.870;2024-01-30T06:32:25;9.10;;;7.80;;
65463;SDS011;52063;45.110;9.870;2024-01-30T06:34:52;8.88;;;7.97;;
65463;SDS011;52063;45.110;9.870;2024-01-30T06:37:18;9.20;;;8.20;;
65463;SDS011;52063;45.110;9.870;2024-01-30T06:39:43;8.63;;;7.70;;
65463;SDS011;52063;45.110;9.870;2024-01-30T06:42:09;8.07;;;7.27;;
65463;SDS011;52063;45.110;9.870;2024-01-30T06:44:34;8.37;;;7.47;;
65463;SDS011;52063;45.110;9.870;2024-01-30T06:47:00;8.23;;;7.43;;
65463;SDS011;52063;45.110;9.870;2024-01-30T06:49:25;8.80;;;7.90;;
65463;SDS011;52063;45.110;9.870;2024-01-30T06:51:51;8.73;;;7.60;;
65463;SDS011;52063;45.110;9.870;2024-01-30T06:54:16;9.50;;;7.57;;
65463;SDS011;52063;45.110;9.870;2024-01-30T06:56:42;8.23;;;7.43;;
65463;SDS011;52063;45.110;9.870;2024-01-30T06:59:07;8.23;;;7.30;;
65463;SDS011;52063;45.110;9.870;2024-01-30T07:01:33;7.90;;;7.10;;
65463;SDS011;52063;45.110;9.870;2024-01-30T07:03:59;8.32;;;7.47;;
65463;SDS011;52063;45.110;9.870;2024-01-30T07:06:24;7.80;;;7.00;;
65463;SDS011;52063;45.110;9.870;2024-01-30T07:08:50;7.63;;;6.87;;
65463;SDS011;52063;45.110;9.870;2024-01-30T07:11:21;8.40;;;7.47;;
65463;SDS011;52063;45.110;9.870;2024-01-30T07:13:49;8.37;;;7.53;;
65463;SDS011;52063;45.110;9.870;2024-01-30T07:16:15;8.05;;;7.20;;
65463;SDS011;52063;45.110;9.870;2024-01-30T07:18:41;10.07;;;7.43;;
65463;SDS011;52063;45.110;9.870;2024-01-30T07:21:06;7.57;;;6.55;;
65463;SDS011;52063;45.110;9.870;2024-01-30T07:23:32;8.13;;;7.37;;
65463;SDS011;52063;45.110;9.870;2024-01-30T07:25:59;7.47;;;6.78;;
65463;SDS011;52063;45.110;9.870;2024-01-30T07:28:24;8.33;;;7.43;;
65463;SDS011;52063;45.110;9.870;2024-01-30T07:30:50;7.93;;;7.13;;
65463;SDS011;52063;45.110;9.870;2024-01-30T07:33:15;7.80;;;7.10;;
65463;SDS011;52063;45.110;9.870;2024-01-30T07:35:41;7.47;;;6.77;;
65463;SDS011;52063;45.110;9.870;2024-01-30T07:38:06;7.77;;;6.87;;
65463;SDS011;52063;45.110;9.870;2024-01-30T07:40:32;7.18;;;6.22;;
65463;SDS011;52063;45.110;9.870;2024-01-30T07:42:58;8.17;;;7.23;;
65463;SDS011;52063;45.110;9.870;2024-01-30T07:45:24;8.52;;;6.90;;
65463;SDS011;52063;45.110;9.870;2024-01-30T07:47:50;7.82;;;7.03;;
65463;SDS011;52063;45.110;9.870;2024-01-30T07:50:16;8.13;;;6.80;;
65463;SDS011;52063;45.110;9.870;2024-01-30T07:52:42;7.60;;;6.80;;
65463;SDS011;52063;45.110;9.870;2024-01-30T07:55:08;17.13;;;12.75;;
65463;SDS011;52063;45.110;9.870;2024-01-30T07:57:34;21.70;;;16.13;;
65463;SDS011;52063;45.110;9.870;2024-01-30T08:00:00;21.70;;;15.47;;
65463;SDS011;52063;45.110;9.870;2024-01-30T08:02:26;14.60;;;11.50;;
65463;SDS011;52063;45.110;9.870;2024-01-30T08:04:51;14.10;;;10.23;;
65463;SDS011;52063;45.110;9.870;2024-01-30T08:07:16;14.00;;;10.97;;
65463;SDS011;52063;45.110;9.870;2024-01-30T08:09:43;14.32;;;11.02;;
65463;SDS011;52063;45.110;9.870;2024-01-30T08:12:09;12.77;;;10.43;;
65463;SDS011;52063;45.110;9.870;2024-01-30T08:14:34;15.53;;;10.97;;
65463;SDS011;52063;45.110;9.870;2024-01-30T08:17:00;13.07;;;10.73;;
65463;SDS011;52063;45.110;9.870;2024-01-30T08:19:25;13.27;;;11.03;;
65463;SDS011;52063;45.110;9.870;2024-01-30T08:21:51;11.50;;;9.95;;
65463;SDS011;52063;45.110;9.870;2024-01-30T08:24:16;11.50;;;9.83;;
65463;SDS011;52063;45.110;9.870;2024-01-30T08:26:41;13.37;;;10.97;;
65463;SDS011;52063;45.110;9.870;2024-01-30T08:29:07;13.70;;;10.30;;
65463;SDS011;52063;45.110;9.870;2024-01-30T08:31:33;13.10;;;9.90;;
65463;SDS011;52063;45.110;9.870;2024-01-30T08:33:58;13.70;;;10.73;;
65463;SDS011;52063;45.110;9.870;2024-01-30T08:36:24;12.43;;;10.82;;
65463;SDS011;52063;45.110;9.870;2024-01-30T08:38:50;14.45;;;11.57;;
65463;SDS011;52063;45.110;9.870;2024-01-30T08:41:15;13.83;;;10.13;;
65463;SDS011;52063;45.110;9.870;2024-01-30T08:43:41;12.13;;;9.90;;
65463;SDS011;52063;45.110;9.870;2024-01-30T08:46:06;13.90;;;11.30;;
65463;SDS011;52063;45.110;9.870;2024-01-30T08:48:32;12.35;;;10.32;;
65463;SDS011;52063;45.110;9.870;2024-01-30T08:50:57;13.13;;;11.00;;
65463;SDS011;52063;45.110;9.870;2024-01-30T08:53:23;13.03;;;10.73;;
65463;SDS011;52063;45.110;9.870;2024-01-30T08:55:48;13.13;;;10.88;;
65463;SDS011;52063;45.110;9.870;2024-01-30T08:58:14;12.97;;;10.97;;
65463;SDS011;52063;45.110;9.870;2024-01-30T09:00:40;13.75;;;10.90;;
65463;SDS011;52063;45.110;9.870;2024-01-30T09:03:06;14.27;;;10.57;;
65463;SDS011;52063;45.110;9.870;2024-01-30T09:05:31;12.00;;;10.30;;
65463;SDS011;52063;45.110;9.870;2024-01-30T09:07:56;12.27;;;10.88;;
65463;SDS011;52063;45.110;9.870;2024-01-30T09:10:22;12.67;;;10.50;;
65463;SDS011;52063;45.110;9.870;2024-01-30T09:12:47;13.10;;;11.00;;
65463;SDS011;52063;45.110;9.870;2024-01-30T09:15:14;13.88;;;11.52;;
65463;SDS011;52063;45.110;9.870;2024-01-30T09:17:40;15.40;;;11.27;;
65463;SDS011;52063;45.110;9.870;2024-01-30T09:20:05;13.77;;;11.15;;
65463;SDS011;52063;45.110;9.870;2024-01-30T09:22:31;14.27;;;11.17;;
65463;SDS011;52063;45.110;9.870;2024-01-30T09:24:57;14.27;;;10.75;;
65463;SDS011;52063;45.110;9.870;2024-01-30T09:27:22;13.70;;;11.37;;
65463;SDS011;52063;45.110;9.870;2024-01-30T09:29:48;14.73;;;11.15;;
65463;SDS011;52063;45.110;9.870;2024-01-30T09:32:13;14.33;;;11.17;;
65463;SDS011;52063;45.110;9.870;2024-01-30T09:34:39;11.60;;;10.40;;
65463;SDS011;52063;45.110;9.870;2024-01-30T09:37:04;13.65;;;11.57;;
65463;SDS011;52063;45.110;9.870;2024-01-30T09:39:30;13.13;;;11.17;;
65463;SDS011;52063;45.110;9.870;2024-01-30T09:42:00;14.65;;;11.95;;
65463;SDS011;52063;45.110;9.870;2024-01-30T09:44:28;14.80;;;11.30;;
65463;SDS011;52063;45.110;9.870;2024-01-30T09:46:54;13.93;;;11.60;;
65463;SDS011;52063;45.110;9.870;2024-01-30T09:49:20;14.90;;;12.25;;
65463;SDS011;52063;45.110;9.870;2024-01-30T09:51:46;14.93;;;12.30;;
65463;SDS011;52063;45.110;9.870;2024-01-30T09:54:12;14.90;;;11.65;;
65463;SDS011;52063;45.110;9.870;2024-01-30T09:56:39;15.73;;;12.27;;
65463;SDS011;52063;45.110;9.870;2024-01-30T09:59:04;16.23;;;12.73;;
65463;SDS011;52063;45.110;9.870;2024-01-30T10:01:30;15.30;;;12.33;;
65463;SDS011;52063;45.110;9.870;2024-01-30T10:03:56;17.00;;;13.35;;
65463;SDS011;52063;45.110;9.870;2024-01-30T10:06:21;16.50;;;13.00;;
65463;SDS011;52063;45.110;9.870;2024-01-30T10:08:48;16.60;;;13.05;;
65463;SDS011;52063;45.110;9.870;2024-01-30T10:11:13;15.68;;;12.23;;
65463;SDS011;52063;45.110;9.870;2024-01-30T10:13:39;15.90;;;12.80;;
65463;SDS011;52063;45.110;9.870;2024-01-30T10:16:04;17.37;;;13.03;;
65463;SDS011;52063;45.110;9.870;2024-01-30T10:18:31;17.23;;;13.20;;
65463;SDS011;52063;45.110;9.870;2024-01-30T10:20:58;16.40;;;12.93;;
65463;SDS011;52063;45.110;9.870;2024-01-30T10:23:24;19.63;;;13.47;;
65463;SDS011;52063;45.110;9.870;2024-01-30T10:25:50;17.17;;;13.90;;
65463;SDS011;52063;45.110;9.870;2024-01-30T10:28:17;17.60;;;13.63;;
65463;SDS011;52063;45.110;9.870;2024-01-30T10:30:42;19.08;;;14.20;;
65463;SDS011;52063;45.110;9.870;2024-01-30T10:33:08;17.83;;;14.13;;
65463;SDS011;52063;45.110;9.870;2024-01-30T10:35:33;18.27;;;13.83;;
65463;SDS011;52063;45.110;9.870;2024-01-30T10:37:59;18.98;;;13.50;;
65463;SDS011;52063;45.110;9.870;2024-01-30T10:40:26;18.73;;;13.70;;
65463;SDS011;52063;45.110;9.870;2024-01-30T10:42:53;19.63;;;13.77;;
65463;SDS011;52063;45.110;9.870;2024-01-30T10:45:20;19.27;;;14.70;;
65463;SDS011;52063;45.110;9.870;2024-01-30T10:47:50;18.83;;;14.17;;
65463;SDS011;52063;45.110;9.870;2024-01-30T10:50:16;18.55;;;14.00;;
65463;SDS011;52063;45.110;9.870;2024-01-30T10:52:41;19.10;;;14.23;;
65463;SDS011;52063;45.110;9.870;2024-01-30T10:55:07;18.73;;;14.87;;
65463;SDS011;52063;45.110;9.870;2024-01-30T10:57:36;19.08;;;14.25;;
65463;SDS011;52063;45.110;9.870;2024-01-30T11:00:03;18.85;;;14.63;;
65463;SDS011;52063;45.110;9.870;2024-01-30T11:02:30;21.25;;;15.13;;
65463;SDS011;52063;45.110;9.870;2024-01-30T11:04:57;21.33;;;14.57;;
65463;SDS011;52063;45.110;9.870;2024-01-30T11:07:27;21.10;;;15.20;;
65463;SDS011;52063;45.110;9.870;2024-01-30T11:09:59;19.98;;;14.80;;
65463;SDS011;52063;45.110;9.870;2024-01-30T11:12:26;19.52;;;14.60;;
65463;SDS011;52063;45.110;9.870;2024-01-30T11:17:45;20.58;;;14.77;;
65463;SDS011;52063;45.110;9.870;2024-01-30T11:20:20;21.50;;;15.80;;
65463;SDS011;52063;45.110;9.870;2024-01-30T11:22:50;21.13;;;16.35;;
65463;SDS011;52063;45.110;9.870;2024-01-30T11:25:17;22.42;;;15.85;;
65463;SDS011;52063;45.110;9.870;2024-01-30T11:27:44;22.50;;;15.50;;
65463;SDS011;52063;45.110;9.870;2024-01-30T11:30:20;23.17;;;16.00;;
65463;SDS011;52063;45.110;9.870;2024-01-30T11:35:32;22.25;;;16.13;;
65463;SDS011;52063;45.110;9.870;2024-01-30T11:37:58;22.98;;;16.48;;
65463;SDS011;52063;45.110;9.870;2024-01-30T11:40:24;21.20;;;15.80;;
65463;SDS011;52063;45.110;9.870;2024-01-30T11:42:54;22.55;;;16.00;;
65463;SDS011;52063;45.110;9.870;2024-01-30T11:45:20;20.97;;;15.70;;
65463;SDS011;52063;45.110;9.870;2024-01-30T11:47:46;20.67;;;15.43;;
65463;SDS011;52063;45.110;9.870;2024-01-30T11:50:11;21.60;;;15.27;;
65463;SDS011;52063;45.110;9.870;2024-01-30T11:52:37;20.55;;;15.27;;
65463;SDS011;52063;45.110;9.870;2024-01-30T11:55:03;21.87;;;15.80;;
65463;SDS011;52063;45.110;9.870;2024-01-30T11:57:29;21.83;;;15.80;;
65463;SDS011;52063;45.110;9.870;2024-01-30T11:59:54;22.03;;;15.73;;
65463;SDS011;52063;45.110;9.870;2024-01-30T12:02:19;20.80;;;15.55;;
65463;SDS011;52063;45.110;9.870;2024-01-30T12:04:45;23.23;;;15.43;;
65463;SDS011;52063;45.110;9.870;2024-01-30T12:07:11;22.00;;;15.67;;
65463;SDS011;52063;45.110;9.870;2024-01-30T12:09:37;21.85;;;15.18;;
65463;SDS011;52063;45.110;9.870;2024-01-30T12:12:02;21.73;;;15.10;;
65463;SDS011;52063;45.110;9.870;2024-01-30T12:14:28;21.25;;;15.18;;
65463;SDS011;52063;45.110;9.870;2024-01-30T12:16:54;21.00;;;15.50;;
65463;SDS011;52063;45.110;9.870;2024-01-30T12:19:23;22.30;;;15.13;;
65463;SDS011;52063;45.110;9.870;2024-01-30T12:21:56;21.63;;;14.73;;
65463;SDS011;52063;45.110;9.870;2024-01-30T12:24:22;20.65;;;14.93;;
65463;SDS011;52063;45.110;9.870;2024-01-30T12:26:48;19.17;;;14.43;;
65463;SDS011;52063;45.110;9.870;2024-01-30T12:29:14;19.27;;;14.13;;
65463;SDS011;52063;45.110;9.870;2024-01-30T12:31:41;20.15;;;14.57;;
65463;SDS011;52063;45.110;9.870;2024-01-30T12:34:07;18.30;;;14.18;;
65463;SDS011;52063;45.110;9.870;2024-01-30T12:36:33;20.23;;;14.80;;
65463;SDS011;52063;45.110;9.870;2024-01-30T12:38:59;20.35;;;14.73;;
65463;SDS011;52063;45.110;9.870;2024-01-30T12:41:25;18.92;;;13.85;;
65463;SDS011;52063;45.110;9.870;2024-01-30T12:43:54;17.50;;;13.50;;
65463;SDS011;52063;45.110;9.870;2024-01-30T12:46:19;19.77;;;14.85;;
65463;SDS011;52063;45.110;9.870;2024-01-30T12:48:45;19.27;;;14.03;;
65463;SDS011;52063;45.110;9.870;2024-01-30T12:51:10;19.00;;;14.63;;
65463;SDS011;52063;45.110;9.870;2024-01-30T12:53:36;18.43;;;14.50;;
65463;SDS011;52063;45.110;9.870;2024-01-30T12:56:01;18.57;;;13.83;;
65463;SDS011;52063;45.110;9.870;2024-01-30T12:58:27;18.65;;;13.73;;
65463;SDS011;52063;45.110;9.870;2024-01-30T13:00:52;18.80;;;14.40;;
65463;SDS011;52063;45.110;9.870;2024-01-30T13:03:19;19.90;;;14.25;;
65463;SDS011;52063;45.110;9.870;2024-01-30T13:05:44;18.43;;;13.83;;
65463;SDS011;52063;45.110;9.870;2024-01-30T13:08:09;20.17;;;14.90;;
65463;SDS011;52063;45.110;9.870;2024-01-30T13:10:35;19.25;;;14.00;;
65463;SDS011;52063;45.110;9.870;2024-01-30T13:13:00;19.73;;;14.27;;
65463;SDS011;52063;45.110;9.870;2024-01-30T13:15:26;20.37;;;14.50;;
65463;SDS011;52063;45.110;9.870;2024-01-30T13:17:51;20.97;;;13.43;;
65463;SDS011;52063;45.110;9.870;2024-01-30T13:20:19;18.92;;;13.02;;
65463;SDS011;52063;45.110;9.870;2024-01-30T13:22:48;18.10;;;13.50;;
65463;SDS011;52063;45.110;9.870;2024-01-30T13:25:15;17.88;;;13.48;;
65463;SDS011;52063;45.110;9.870;2024-01-30T13:27:41;19.80;;;14.40;;
65463;SDS011;52063;45.110;9.870;2024-01-30T13:30:06;21.20;;;14.25;;
65463;SDS011;52063;45.110;9.870;2024-01-30T13:32:33;16.92;;;13.32;;
65463;SDS011;52063;45.110;9.870;2024-01-30T13:34:58;18.17;;;13.80;;
65463;SDS011;52063;45.110;9.870;2024-01-30T13:37:24;19.67;;;13.30;;
65463;SDS011;52063;45.110;9.870;2024-01-30T13:39:50;16.63;;;12.90;;
65463;SDS011;52063;45.110;9.870;2024-01-30T13:42:15;20.17;;;13.83;;
65463;SDS011;52063;45.110;9.870;2024-01-30T13:44:41;17.37;;;12.90;;
65463;SDS011;52063;45.110;9.870;2024-01-30T13:47:08;19.40;;;13.57;;
65463;SDS011;52063;45.110;9.870;2024-01-30T13:49:33;16.37;;;12.73;;
65463;SDS011;52063;45.110;9.870;2024-01-30T13:51:59;17.10;;;13.10;;
65463;SDS011;52063;45.110;9.870;2024-01-30T13:54:24;16.57;;;13.13;;
65463;SDS011;52063;45.110;9.870;2024-01-30T13:56:50;16.97;;;13.27;;
65463;SDS011;52063;45.110;9.870;2024-01-30T13:59:15;17.35;;;13.50;;
65463;SDS011;52063;45.110;9.870;2024-01-30T14:01:47;17.63;;;13.33;;
65463;SDS011;52063;45.110;9.870;2024-01-30T14:04:13;16.63;;;12.93;;
65463;SDS011;52063;45.110;9.870;2024-01-30T14:06:39;17.33;;;12.98;;
65463;SDS011;52063;45.110;9.870;2024-01-30T14:09:05;15.63;;;12.60;;
65463;SDS011;52063;45.110;9.870;2024-01-30T14:11:31;18.33;;;13.27;;
65463;SDS011;52063;45.110;9.870;2024-01-30T14:13:56;16.73;;;12.87;;
65463;SDS011;52063;45.110;9.870;2024-01-30T14:16:22;18.40;;;12.93;;
65463;SDS011;52063;45.110;9.870;2024-01-30T14:18:49;17.13;;;12.57;;
65463;SDS011;52063;45.110;9.870;2024-01-30T14:21:15;17.55;;;12.93;;
65463;SDS011;52063;45.110;9.870;2024-01-30T14:23:40;15.53;;;12.30;;